sensor_id;sensor_type;location;lat;lon;timestamp;temperature;humidity
42905;DHT22;28550;51.228;4.528;2023-04-24T00:02:06;10.10;99.90
42905;DHT22;28550;51.228;4.528;2023-04-24T00:04:34;10.10;99.90
42905;DHT22;28550;51.228;4.528;2023-04-24T00:07:03;10.10;99.90
42905;DHT22;28550;51.228;4.528;2023-04-24T00:09:33;10.20;99.90
42905;DHT22;28550;51.228;4.528;2023-04-24T00:11:59;10.10;99.90
42905;DHT22;28550;51.228;4.528;2023-04-24T00:14:32;10.10;99.90
42905;DHT22;28550;51.228;4.528;2023-04-24T00:16:57;10.20;99.90
42905;DHT22;28550;51.228;4.528;2023-04-24T00:19:23;10.10;99.90
42905;DHT22;28550;51.228;4.528;2023-04-24T00:21:59;10.10;99.90
42905;DHT22;28550;51.228;4.528;2023-04-24T00:24:25;10.10;99.90
42905;DHT22;28550;51.228;4.528;2023-04-24T00:26:53;10.20;99.90
42905;DHT22;28550;51.228;4.528;2023-04-24T00:29:22;10.20;99.20
42905;DHT22;28550;51.228;4.528;2023-04-24T00:31:47;10.20;99.90
42905;DHT22;28550;51.228;4.528;2023-04-24T00:34:14;10.20;99.90
42905;DHT22;28550;51.228;4.528;2023-04-24T00:36:48;10.10;99.90
42905;DHT22;28550;51.228;4.528;2023-04-24T00:39:18;10.10;99.20
42905;DHT22;28550;51.228;4.528;2023-04-24T00:41:45;10.10;99.90
42905;DHT22;28550;51.228;4.528;2023-04-24T00:44:12;10.10;99.90
42905;DHT22;28550;51.228;4.528;2023-04-24T00:46:39;10.10;99.50
42905;DHT22;28550;51.228;4.528;2023-04-24T00:49:05;10.10;97.60
42905;DHT22;28550;51.228;4.528;2023-04-24T00:51:56;10.10;97.90
42905;DHT22;28550;51.228;4.528;2023-04-24T00:54:22;10.20;98.30
42905;DHT22;28550;51.228;4.528;2023-04-24T00:56:48;10.10;97.20
42905;DHT22;28550;51.228;4.528;2023-04-24T00:59:23;10.10;97.60
42905;DHT22;28550;51.228;4.528;2023-04-24T01:01:51;10.10;96.90
42905;DHT22;28550;51.228;4.528;2023-04-24T01:04:27;10.10;97.00
42905;DHT22;28550;51.228;4.528;2023-04-24T01:06:54;10.10;97.70
42905;DHT22;28550;51.228;4.528;2023-04-24T01:09:26;10.00;99.40
42905;DHT22;28550;51.228;4.528;2023-04-24T01:12:27;10.10;98.20
42905;DHT22;28550;51.228;4.528;2023-04-24T01:14:54;10.10;98.70
42905;DHT22;28550;51.228;4.528;2023-04-24T01:17:22;10.20;96.10
42905;DHT22;28550;51.228;4.528;2023-04-24T01:19:48;10.10;96.60
42905;DHT22;28550;51.228;4.528;2023-04-24T01:22:19;10.10;97.40
42905;DHT22;28550;51.228;4.528;2023-04-24T01:24:48;10.10;97.40
42905;DHT22;28550;51.228;4.528;2023-04-24T01:27:15;10.10;97.90
42905;DHT22;28550;51.228;4.528;2023-04-24T01:29:45;10.10;97.80
42905;DHT22;28550;51.228;4.528;2023-04-24T01:32:19;10.00;98.90
42905;DHT22;28550;51.228;4.528;2023-04-24T01:34:49;10.00;98.30
42905;DHT22;28550;51.228;4.528;2023-04-24T01:37:17;10.10;99.90
42905;DHT22;28550;51.228;4.528;2023-04-24T01:39:45;10.10;99.50
42905;DHT22;28550;51.228;4.528;2023-04-24T01:42:34;10.10;98.90
42905;DHT22;28550;51.228;4.528;2023-04-24T01:45:36;10.20;96.90
42905;DHT22;28550;51.228;4.528;2023-04-24T01:48:05;10.20;94.90
42905;DHT22;28550;51.228;4.528;2023-04-24T01:50:34;10.10;95.30
42905;DHT22;28550;51.228;4.528;2023-04-24T01:53:12;10.20;94.50
42905;DHT22;28550;51.228;4.528;2023-04-24T01:55:50;10.20;95.30
42905;DHT22;28550;51.228;4.528;2023-04-24T01:58:19;10.20;91.20
42905;DHT22;28550;51.228;4.528;2023-04-24T02:00:48;10.20;91.90
42905;DHT22;28550;51.228;4.528;2023-04-24T02:03:31;10.10;93.00
42905;DHT22;28550;51.228;4.528;2023-04-24T02:06:17;10.10;93.40
42905;DHT22;28550;51.228;4.528;2023-04-24T02:08:44;10.10;91.70
42905;DHT22;28550;51.228;4.528;2023-04-24T02:11:09;10.00;92.90
42905;DHT22;28550;51.228;4.528;2023-04-24T02:13:42;10.00;94.40
42905;DHT22;28550;51.228;4.528;2023-04-24T02:16:10;10.10;93.30
42905;DHT22;28550;51.228;4.528;2023-04-24T02:18:35;10.10;92.70
42905;DHT22;28550;51.228;4.528;2023-04-24T02:21:01;10.10;92.20
42905;DHT22;28550;51.228;4.528;2023-04-24T02:23:37;10.20;90.60
42905;DHT22;28550;51.228;4.528;2023-04-24T02:26:13;10.10;93.80
42905;DHT22;28550;51.228;4.528;2023-04-24T02:28:39;10.20;92.90
42905;DHT22;28550;51.228;4.528;2023-04-24T02:31:06;10.20;92.60
42905;DHT22;28550;51.228;4.528;2023-04-24T02:33:46;10.20;92.10
42905;DHT22;28550;51.228;4.528;2023-04-24T02:36:12;10.20;93.60
42905;DHT22;28550;51.228;4.528;2023-04-24T02:38:45;10.20;92.60
42905;DHT22;28550;51.228;4.528;2023-04-24T02:41:11;10.20;93.50
42905;DHT22;28550;51.228;4.528;2023-04-24T02:43:37;10.20;90.60
42905;DHT22;28550;51.228;4.528;2023-04-24T02:46:24;10.10;92.90
42905;DHT22;28550;51.228;4.528;2023-04-24T02:51:26;10.00;95.00
42905;DHT22;28550;51.228;4.528;2023-04-24T02:53:59;9.90;95.40
42905;DHT22;28550;51.228;4.528;2023-04-24T02:57:18;9.90;96.30
42905;DHT22;28550;51.228;4.528;2023-04-24T02:59:36;9.90;98.80
42905;DHT22;28550;51.228;4.528;2023-04-24T03:02:03;9.80;99.90
42905;DHT22;28550;51.228;4.528;2023-04-24T03:04:38;9.90;99.20
42905;DHT22;28550;51.228;4.528;2023-04-24T03:07:05;9.70;99.90
42905;DHT22;28550;51.228;4.528;2023-04-24T03:09:31;9.70;99.90
42905;DHT22;28550;51.228;4.528;2023-04-24T03:11:57;9.60;99.90
42905;DHT22;28550;51.228;4.528;2023-04-24T03:14:31;9.50;99.90
42905;DHT22;28550;51.228;4.528;2023-04-24T03:17:01;9.50;99.90
42905;DHT22;28550;51.228;4.528;2023-04-24T03:19:29;9.50;99.90
42905;DHT22;28550;51.228;4.528;2023-04-24T03:21:56;9.50;99.90
42905;DHT22;28550;51.228;4.528;2023-04-24T03:24:21;9.40;99.90
42905;DHT22;28550;51.228;4.528;2023-04-24T03:26:49;9.40;99.90
42905;DHT22;28550;51.228;4.528;2023-04-24T03:29:16;9.40;99.90
42905;DHT22;28550;51.228;4.528;2023-04-24T03:31:42;9.30;99.90
42905;DHT22;28550;51.228;4.528;2023-04-24T03:34:09;9.30;99.90
42905;DHT22;28550;51.228;4.528;2023-04-24T03:36:38;9.20;99.90
42905;DHT22;28550;51.228;4.528;2023-04-24T03:39:05;9.20;99.90
42905;DHT22;28550;51.228;4.528;2023-04-24T03:41:31;9.20;99.90
42905;DHT22;28550;51.228;4.528;2023-04-24T03:44:00;9.30;99.90
42905;DHT22;28550;51.228;4.528;2023-04-24T03:46:46;9.30;99.90
42905;DHT22;28550;51.228;4.528;2023-04-24T03:49:12;9.30;99.90
42905;DHT22;28550;51.228;4.528;2023-04-24T03:51:44;9.30;99.90
42905;DHT22;28550;51.228;4.528;2023-04-24T03:54:16;9.30;99.90
42905;DHT22;28550;51.228;4.528;2023-04-24T03:57:05;9.30;99.90
42905;DHT22;28550;51.228;4.528;2023-04-24T03:59:31;9.30;99.90
42905;DHT22;28550;51.228;4.528;2023-04-24T04:01:58;9.30;99.90
42905;DHT22;28550;51.228;4.528;2023-04-24T04:04:34;9.30;99.90
42905;DHT22;28550;51.228;4.528;2023-04-24T04:07:02;9.30;99.90
42905;DHT22;28550;51.228;4.528;2023-04-24T04:12:28;9.30;99.90
42905;DHT22;28550;51.228;4.528;2023-04-24T04:14:54;9.20;99.90
42905;DHT22;28550;51.228;4.528;2023-04-24T04:17:23;9.20;99.90
42905;DHT22;28550;51.228;4.528;2023-04-24T04:19:48;9.10;99.90
42905;DHT22;28550;51.228;4.528;2023-04-24T04:22:15;9.10;99.90
42905;DHT22;28550;51.228;4.528;2023-04-24T04:24:42;9.10;99.90
42905;DHT22;28550;51.228;4.528;2023-04-24T04:27:14;9.10;99.90
42905;DHT22;28550;51.228;4.528;2023-04-24T04:29:41;9.10;99.90
42905;DHT22;28550;51.228;4.528;2023-04-24T04:32:08;9.10;99.90
42905;DHT22;28550;51.228;4.528;2023-04-24T04:34:36;9.00;99.90
42905;DHT22;28550;51.228;4.528;2023-04-24T04:40:03;9.10;99.90
42905;DHT22;28550;51.228;4.528;2023-04-24T04:42:33;9.10;99.90
42905;DHT22;28550;51.228;4.528;2023-04-24T04:45:22;9.00;99.90
42905;DHT22;28550;51.228;4.528;2023-04-24T04:47:52;9.00;99.90
42905;DHT22;28550;51.228;4.528;2023-04-24T04:50:17;9.00;99.90
42905;DHT22;28550;51.228;4.528;2023-04-24T04:52:44;9.00;99.90
42905;DHT22;28550;51.228;4.528;2023-04-24T04:55:21;9.00;99.90
42905;DHT22;28550;51.228;4.528;2023-04-24T04:57:47;9.00;99.90
42905;DHT22;28550;51.228;4.528;2023-04-24T05:00:13;8.90;99.90
42905;DHT22;28550;51.228;4.528;2023-04-24T05:02:51;9.00;99.90
42905;DHT22;28550;51.228;4.528;2023-04-24T05:05:18;9.10;99.90
42905;DHT22;28550;51.228;4.528;2023-04-24T05:07:44;9.00;99.90
42905;DHT22;28550;51.228;4.528;2023-04-24T05:10:14;8.90;99.90
42905;DHT22;28550;51.228;4.528;2023-04-24T05:12:40;8.90;99.90
42905;DHT22;28550;51.228;4.528;2023-04-24T05:15:08;8.80;99.90
42905;DHT22;28550;51.228;4.528;2023-04-24T05:17:37;8.70;99.90
42905;DHT22;28550;51.228;4.528;2023-04-24T05:22:38;8.70;99.90
42905;DHT22;28550;51.228;4.528;2023-04-24T05:25:04;8.70;99.90
42905;DHT22;28550;51.228;4.528;2023-04-24T05:30:35;8.60;99.90
42905;DHT22;28550;51.228;4.528;2023-04-24T05:33:01;8.60;99.90
42905;DHT22;28550;51.228;4.528;2023-04-24T05:35:37;8.60;99.90
42905;DHT22;28550;51.228;4.528;2023-04-24T05:38:08;8.50;99.90
42905;DHT22;28550;51.228;4.528;2023-04-24T05:46:22;8.50;99.90
42905;DHT22;28550;51.228;4.528;2023-04-24T05:48:49;8.50;99.90
42905;DHT22;28550;51.228;4.528;2023-04-24T05:51:16;8.60;99.90
42905;DHT22;28550;51.228;4.528;2023-04-24T05:53:42;8.50;99.90
42905;DHT22;28550;51.228;4.528;2023-04-24T05:59:14;8.60;99.90
42905;DHT22;28550;51.228;4.528;2023-04-24T06:01:43;8.60;99.90
42905;DHT22;28550;51.228;4.528;2023-04-24T06:04:18;8.70;99.90
42905;DHT22;28550;51.228;4.528;2023-04-24T06:06:48;8.70;99.90
42905;DHT22;28550;51.228;4.528;2023-04-24T06:09:17;8.60;99.90
42905;DHT22;28550;51.228;4.528;2023-04-24T06:11:48;8.70;99.90
42905;DHT22;28550;51.228;4.528;2023-04-24T06:28:01;8.80;99.90
42905;DHT22;28550;51.228;4.528;2023-04-24T06:30:28;8.90;99.90
42905;DHT22;28550;51.228;4.528;2023-04-24T06:32:55;8.80;99.90
42905;DHT22;28550;51.228;4.528;2023-04-24T06:35:30;8.90;99.90
42905;DHT22;28550;51.228;4.528;2023-04-24T06:37:59;9.00;99.90
42905;DHT22;28550;51.228;4.528;2023-04-24T06:40:25;9.10;99.90
42905;DHT22;28550;51.228;4.528;2023-04-24T06:43:42;9.20;99.90
42905;DHT22;28550;51.228;4.528;2023-04-24T06:46:29;9.20;99.90
42905;DHT22;28550;51.228;4.528;2023-04-24T06:49:04;9.20;99.90
42905;DHT22;28550;51.228;4.528;2023-04-24T06:54:05;9.20;99.90
42905;DHT22;28550;51.228;4.528;2023-04-24T06:56:44;9.20;99.90
42905;DHT22;28550;51.228;4.528;2023-04-24T06:59:16;9.20;99.90
42905;DHT22;28550;51.228;4.528;2023-04-24T07:01:47;9.20;99.90
42905;DHT22;28550;51.228;4.528;2023-04-24T07:04:21;9.20;99.90
42905;DHT22;28550;51.228;4.528;2023-04-24T07:06:50;9.20;99.90
42905;DHT22;28550;51.228;4.528;2023-04-24T07:09:16;9.20;99.90
42905;DHT22;28550;51.228;4.528;2023-04-24T07:11:50;9.30;99.90
42905;DHT22;28550;51.228;4.528;2023-04-24T07:14:47;9.30;99.90
42905;DHT22;28550;51.228;4.528;2023-04-24T07:17:13;9.30;99.90
42905;DHT22;28550;51.228;4.528;2023-04-24T07:19:58;9.30;99.90
42905;DHT22;28550;51.228;4.528;2023-04-24T07:22:25;9.30;99.90
42905;DHT22;28550;51.228;4.528;2023-04-24T07:25:01;9.30;99.90
42905;DHT22;28550;51.228;4.528;2023-04-24T07:27:36;9.20;99.90
42905;DHT22;28550;51.228;4.528;2023-04-24T07:30:13;9.20;99.90
42905;DHT22;28550;51.228;4.528;2023-04-24T07:33:13;9.10;99.90
42905;DHT22;28550;51.228;4.528;2023-04-24T07:38:14;9.20;99.90
42905;DHT22;28550;51.228;4.528;2023-04-24T07:40:40;9.20;99.90
42905;DHT22;28550;51.228;4.528;2023-04-24T07:43:06;9.40;99.90
42905;DHT22;28550;51.228;4.528;2023-04-24T07:45:31;9.40;98.50
42905;DHT22;28550;51.228;4.528;2023-04-24T07:48:02;9.50;96.90
42905;DHT22;28550;51.228;4.528;2023-04-24T07:50:35;9.50;98.60
42905;DHT22;28550;51.228;4.528;2023-04-24T07:55:40;9.80;96.30
42905;DHT22;28550;51.228;4.528;2023-04-24T07:58:09;9.90;90.80
42905;DHT22;28550;51.228;4.528;2023-04-24T08:01:05;10.10;81.40
42905;DHT22;28550;51.228;4.528;2023-04-24T08:04:21;10.20;85.60
42905;DHT22;28550;51.228;4.528;2023-04-24T08:06:48;10.30;64.70
42905;DHT22;28550;51.228;4.528;2023-04-24T08:09:19;10.30;70.80
42905;DHT22;28550;51.228;4.528;2023-04-24T08:11:48;10.30;83.10
42905;DHT22;28550;51.228;4.528;2023-04-24T08:17:00;10.40;69.30
42905;DHT22;28550;51.228;4.528;2023-04-24T08:25:25;10.40;84.10
42905;DHT22;28550;51.228;4.528;2023-04-24T08:27:54;10.20;83.90
42905;DHT22;28550;51.228;4.528;2023-04-24T08:30:25;10.20;91.30
42905;DHT22;28550;51.228;4.528;2023-04-24T08:32:57;10.10;95.40
42905;DHT22;28550;51.228;4.528;2023-04-24T08:35:32;9.90;95.60
42905;DHT22;28550;51.228;4.528;2023-04-24T08:38:21;9.90;93.40
42905;DHT22;28550;51.228;4.528;2023-04-24T08:40:48;10.00;93.40
42905;DHT22;28550;51.228;4.528;2023-04-24T09:00:25;11.00;17.20
42905;DHT22;28550;51.228;4.528;2023-04-24T09:03:04;11.70;8.00
42905;DHT22;28550;51.228;4.528;2023-04-24T09:05:39;11.80;1.00
42905;DHT22;28550;51.228;4.528;2023-04-24T09:11:15;11.30;1.00
42905;DHT22;28550;51.228;4.528;2023-04-24T09:13:48;11.20;1.00
42905;DHT22;28550;51.228;4.528;2023-04-24T09:16:17;11.30;1.00
42905;DHT22;28550;51.228;4.528;2023-04-24T09:19:35;11.50;1.00
42905;DHT22;28550;51.228;4.528;2023-04-24T09:22:28;11.60;1.00
42905;DHT22;28550;51.228;4.528;2023-04-24T09:25:21;11.90;1.00
42905;DHT22;28550;51.228;4.528;2023-04-24T09:28:08;11.90;1.00
42905;DHT22;28550;51.228;4.528;2023-04-24T09:33:35;11.50;99.90
42905;DHT22;28550;51.228;4.528;2023-04-24T09:40:10;10.90;1.00
42905;DHT22;28550;51.228;4.528;2023-04-24T09:46:29;10.50;1.00
42905;DHT22;28550;51.228;4.528;2023-04-24T09:52:18;10.40;1.00
42905;DHT22;28550;51.228;4.528;2023-04-24T09:58:17;11.20;99.90
42905;DHT22;28550;51.228;4.528;2023-04-24T10:01:03;11.70;99.90
42905;DHT22;28550;51.228;4.528;2023-04-24T10:06:57;11.40;99.90
42905;DHT22;28550;51.228;4.528;2023-04-24T10:09:31;11.10;93.70
42905;DHT22;28550;51.228;4.528;2023-04-24T10:12:02;10.80;99.90
42905;DHT22;28550;51.228;4.528;2023-04-24T10:14:30;10.80;99.90
42905;DHT22;28550;51.228;4.528;2023-04-24T10:16:58;10.90;99.90
42905;DHT22;28550;51.228;4.528;2023-04-24T10:19:26;10.90;99.90
42905;DHT22;28550;51.228;4.528;2023-04-24T10:21:53;11.00;1.00
42905;DHT22;28550;51.228;4.528;2023-04-24T10:24:22;11.00;1.00
42905;DHT22;28550;51.228;4.528;2023-04-24T10:26:47;11.00;1.00
42905;DHT22;28550;51.228;4.528;2023-04-24T10:29:20;11.00;1.00
42905;DHT22;28550;51.228;4.528;2023-04-24T10:31:53;10.90;1.00
42905;DHT22;28550;51.228;4.528;2023-04-24T10:34:20;10.90;1.00
42905;DHT22;28550;51.228;4.528;2023-04-24T10:36:57;10.90;99.90
42905;DHT22;28550;51.228;4.528;2023-04-24T10:39:23;10.90;99.90
42905;DHT22;28550;51.228;4.528;2023-04-24T10:41:51;11.10;99.90
42905;DHT22;28550;51.228;4.528;2023-04-24T10:44:17;11.60;99.90
42905;DHT22;28550;51.228;4.528;2023-04-24T10:46:45;11.90;99.90
42905;DHT22;28550;51.228;4.528;2023-04-24T10:49:35;12.10;1.00
42905;DHT22;28550;51.228;4.528;2023-04-24T10:52:02;12.40;99.90
42905;DHT22;28550;51.228;4.528;2023-04-24T10:57:40;13.20;1.00
42905;DHT22;28550;51.228;4.528;2023-04-24T11:00:26;13.20;99.90
42905;DHT22;28550;51.228;4.528;2023-04-24T11:06:36;13.40;99.90
42905;DHT22;28550;51.228;4.528;2023-04-24T11:09:04;13.50;1.00
42905;DHT22;28550;51.228;4.528;2023-04-24T11:11:32;14.50;99.90
42905;DHT22;28550;51.228;4.528;2023-04-24T11:14:18;14.90;99.90
42905;DHT22;28550;51.228;4.528;2023-04-24T11:16:51;14.90;99.90
42905;DHT22;28550;51.228;4.528;2023-04-24T11:19:21;14.90;99.90
42905;DHT22;28550;51.228;4.528;2023-04-24T11:22:02;14.10;99.90
42905;DHT22;28550;51.228;4.528;2023-04-24T11:24:49;13.50;99.90
42905;DHT22;28550;51.228;4.528;2023-04-24T11:27:21;13.00;99.90
42905;DHT22;28550;51.228;4.528;2023-04-24T11:42:52;12.10;99.90
42905;DHT22;28550;51.228;4.528;2023-04-24T11:45:50;12.00;99.90
42905;DHT22;28550;51.228;4.528;2023-04-24T12:10:12;12.80;1.00
42905;DHT22;28550;51.228;4.528;2023-04-24T12:23:13;13.80;1.00
42905;DHT22;28550;51.228;4.528;2023-04-24T12:25:48;13.70;99.90
42905;DHT22;28550;51.228;4.528;2023-04-24T12:28:24;13.50;99.90
42905;DHT22;28550;51.228;4.528;2023-04-24T12:31:25;13.30;99.90
42905;DHT22;28550;51.228;4.528;2023-04-24T12:36:39;13.00;99.90
42905;DHT22;28550;51.228;4.528;2023-04-24T12:45:04;13.10;99.90
42905;DHT22;28550;51.228;4.528;2023-04-24T12:47:35;13.00;1.00
42905;DHT22;28550;51.228;4.528;2023-04-24T13:06:43;14.00;99.90
42905;DHT22;28550;51.228;4.528;2023-04-24T13:17:33;14.90;99.90
42905;DHT22;28550;51.228;4.528;2023-04-24T13:19:59;15.10;99.90
42905;DHT22;28550;51.228;4.528;2023-04-24T13:22:27;16.00;1.00
42905;DHT22;28550;51.228;4.528;2023-04-24T13:24:55;16.60;99.90
42905;DHT22;28550;51.228;4.528;2023-04-24T13:27:21;16.90;99.90
42905;DHT22;28550;51.228;4.528;2023-04-24T13:29:48;16.90;99.90
42905;DHT22;28550;51.228;4.528;2023-04-24T13:32:38;17.20;99.90
42905;DHT22;28550;51.228;4.528;2023-04-24T13:40:27;18.50;26.90
42905;DHT22;28550;51.228;4.528;2023-04-24T13:48:04;17.20;11.60
42905;DHT22;28550;51.228;4.528;2023-04-24T13:50:43;17.00;1.00
42905;DHT22;28550;51.228;4.528;2023-04-24T13:53:16;16.90;13.60
42905;DHT22;28550;51.228;4.528;2023-04-24T13:59:05;17.00;21.80
42905;DHT22;28550;51.228;4.528;2023-04-24T14:04:05;19.50;1.00
42905;DHT22;28550;51.228;4.528;2023-04-24T14:06:59;20.40;1.00
42905;DHT22;28550;51.228;4.528;2023-04-24T14:10:12;19.70;1.00
42905;DHT22;28550;51.228;4.528;2023-04-24T14:12:20;19.60;1.00
42905;DHT22;28550;51.228;4.528;2023-04-24T14:14:47;19.00;1.00
42905;DHT22;28550;51.228;4.528;2023-04-24T14:17:16;17.90;1.00
42905;DHT22;28550;51.228;4.528;2023-04-24T14:19:44;17.50;1.00
42905;DHT22;28550;51.228;4.528;2023-04-24T14:22:11;18.00;1.00
42905;DHT22;28550;51.228;4.528;2023-04-24T14:24:37;17.00;1.00
42905;DHT22;28550;51.228;4.528;2023-04-24T14:27:03;16.20;1.00
42905;DHT22;28550;51.228;4.528;2023-04-24T14:29:30;15.50;1.00
42905;DHT22;28550;51.228;4.528;2023-04-24T14:32:13;15.00;1.00
42905;DHT22;28550;51.228;4.528;2023-04-24T14:34:42;15.40;1.00
42905;DHT22;28550;51.228;4.528;2023-04-24T14:37:18;14.80;1.00
42905;DHT22;28550;51.228;4.528;2023-04-24T14:39:56;14.60;1.00
42905;DHT22;28550;51.228;4.528;2023-04-24T14:42:22;14.10;99.90
42905;DHT22;28550;51.228;4.528;2023-04-24T14:44:47;14.00;99.90
42905;DHT22;28550;51.228;4.528;2023-04-24T14:47:17;13.90;99.90
42905;DHT22;28550;51.228;4.528;2023-04-24T14:49:47;13.90;1.00
42905;DHT22;28550;51.228;4.528;2023-04-24T14:52:14;14.40;99.90
42905;DHT22;28550;51.228;4.528;2023-04-24T14:54:42;14.50;99.90
42905;DHT22;28550;51.228;4.528;2023-04-24T14:57:11;14.20;99.90
42905;DHT22;28550;51.228;4.528;2023-04-24T14:59:37;14.20;1.00
42905;DHT22;28550;51.228;4.528;2023-04-24T15:02:09;14.30;99.90
42905;DHT22;28550;51.228;4.528;2023-04-24T15:04:59;14.10;93.30
42905;DHT22;28550;51.228;4.528;2023-04-24T15:10:10;14.50;27.70
42905;DHT22;28550;51.228;4.528;2023-04-24T15:12:36;15.30;1.00
42905;DHT22;28550;51.228;4.528;2023-04-24T15:15:02;15.40;1.00
42905;DHT22;28550;51.228;4.528;2023-04-24T15:17:30;16.00;1.00
42905;DHT22;28550;51.228;4.528;2023-04-24T15:20:00;15.40;1.00
42905;DHT22;28550;51.228;4.528;2023-04-24T15:22:26;14.90;1.00
42905;DHT22;28550;51.228;4.528;2023-04-24T15:25:03;14.80;1.00
42905;DHT22;28550;51.228;4.528;2023-04-24T15:27:43;15.50;1.00
42905;DHT22;28550;51.228;4.528;2023-04-24T15:30:20;15.80;1.00
42905;DHT22;28550;51.228;4.528;2023-04-24T15:32:49;15.30;1.00
42905;DHT22;28550;51.228;4.528;2023-04-24T15:35:17;14.90;1.00
42905;DHT22;28550;51.228;4.528;2023-04-24T15:37:52;14.40;1.00
42905;DHT22;28550;51.228;4.528;2023-04-24T15:40:24;14.10;1.00
42905;DHT22;28550;51.228;4.528;2023-04-24T15:43:00;13.70;21.70
42905;DHT22;28550;51.228;4.528;2023-04-24T15:45:27;13.50;99.90
42905;DHT22;28550;51.228;4.528;2023-04-24T15:47:52;13.30;1.00
42905;DHT22;28550;51.228;4.528;2023-04-24T15:50:18;13.10;99.90
42905;DHT22;28550;51.228;4.528;2023-04-24T15:52:58;12.90;1.00
42905;DHT22;28550;51.228;4.528;2023-04-24T15:56:03;12.90;1.00
42905;DHT22;28550;51.228;4.528;2023-04-24T15:58:29;12.70;1.00
42905;DHT22;28550;51.228;4.528;2023-04-24T16:01:13;12.60;99.90
42905;DHT22;28550;51.228;4.528;2023-04-24T16:03:51;12.40;99.90
42905;DHT22;28550;51.228;4.528;2023-04-24T16:06:21;12.20;99.90
42905;DHT22;28550;51.228;4.528;2023-04-24T16:09:05;12.00;99.90
42905;DHT22;28550;51.228;4.528;2023-04-24T16:11:34;11.80;99.90
42905;DHT22;28550;51.228;4.528;2023-04-24T16:14:35;11.80;99.90
42905;DHT22;28550;51.228;4.528;2023-04-24T16:17:02;11.70;99.90
42905;DHT22;28550;51.228;4.528;2023-04-24T16:19:33;11.70;1.00
42905;DHT22;28550;51.228;4.528;2023-04-24T16:22:02;11.70;1.00
42905;DHT22;28550;51.228;4.528;2023-04-24T16:24:33;11.80;1.00
42905;DHT22;28550;51.228;4.528;2023-04-24T16:27:06;11.90;1.00
42905;DHT22;28550;51.228;4.528;2023-04-24T16:29:35;12.00;99.90
42905;DHT22;28550;51.228;4.528;2023-04-24T16:32:07;12.10;42.30
42905;DHT22;28550;51.228;4.528;2023-04-24T16:34:35;12.10;1.00
42905;DHT22;28550;51.228;4.528;2023-04-24T16:37:03;12.20;99.90
42905;DHT22;28550;51.228;4.528;2023-04-24T16:39:30;12.20;99.90
42905;DHT22;28550;51.228;4.528;2023-04-24T16:41:56;12.10;1.00
42905;DHT22;28550;51.228;4.528;2023-04-24T16:44:22;11.90;1.00
42905;DHT22;28550;51.228;4.528;2023-04-24T16:46:52;11.80;1.00
42905;DHT22;28550;51.228;4.528;2023-04-24T16:49:17;11.80;1.00
42905;DHT22;28550;51.228;4.528;2023-04-24T16:51:43;12.20;99.90
42905;DHT22;28550;51.228;4.528;2023-04-24T16:54:20;12.50;99.90
42905;DHT22;28550;51.228;4.528;2023-04-24T16:56:46;12.40;43.60
42905;DHT22;28550;51.228;4.528;2023-04-24T16:59:24;12.10;99.90
42905;DHT22;28550;51.228;4.528;2023-04-24T17:01:51;12.20;99.90
42905;DHT22;28550;51.228;4.528;2023-04-24T17:04:23;12.30;99.90
42905;DHT22;28550;51.228;4.528;2023-04-24T17:06:52;12.20;99.90
42905;DHT22;28550;51.228;4.528;2023-04-24T17:09:19;12.00;1.00
42905;DHT22;28550;51.228;4.528;2023-04-24T17:12:06;11.90;99.90
42905;DHT22;28550;51.228;4.528;2023-04-24T17:14:42;11.90;99.90
42905;DHT22;28550;51.228;4.528;2023-04-24T17:17:07;11.60;1.00
42905;DHT22;28550;51.228;4.528;2023-04-24T17:19:45;11.40;99.90
42905;DHT22;28550;51.228;4.528;2023-04-24T17:22:11;11.40;99.90
42905;DHT22;28550;51.228;4.528;2023-04-24T17:24:39;11.30;99.90
42905;DHT22;28550;51.228;4.528;2023-04-24T17:27:05;11.20;1.00
42905;DHT22;28550;51.228;4.528;2023-04-24T17:29:34;11.20;1.00
42905;DHT22;28550;51.228;4.528;2023-04-24T17:32:04;11.30;99.90
42905;DHT22;28550;51.228;4.528;2023-04-24T17:34:39;11.10;95.00
42905;DHT22;28550;51.228;4.528;2023-04-24T17:37:05;11.10;99.90
42905;DHT22;28550;51.228;4.528;2023-04-24T17:39:30;11.00;99.90
42905;DHT22;28550;51.228;4.528;2023-04-24T17:42:00;11.00;1.00
42905;DHT22;28550;51.228;4.528;2023-04-24T17:44:36;11.00;99.90
42905;DHT22;28550;51.228;4.528;2023-04-24T17:47:02;11.00;99.90
42905;DHT22;28550;51.228;4.528;2023-04-24T17:49:41;11.00;1.00
42905;DHT22;28550;51.228;4.528;2023-04-24T17:52:08;11.00;1.00
42905;DHT22;28550;51.228;4.528;2023-04-24T17:54:35;10.90;1.00
42905;DHT22;28550;51.228;4.528;2023-04-24T17:57:00;10.90;1.00
42905;DHT22;28550;51.228;4.528;2023-04-24T17:59:41;11.00;1.00
42905;DHT22;28550;51.228;4.528;2023-04-24T18:02:07;10.90;99.90
42905;DHT22;28550;51.228;4.528;2023-04-24T18:04:32;10.90;1.00
42905;DHT22;28550;51.228;4.528;2023-04-24T18:06:58;10.90;1.00
42905;DHT22;28550;51.228;4.528;2023-04-24T18:09:24;10.90;1.00
42905;DHT22;28550;51.228;4.528;2023-04-24T18:12:00;10.80;99.90
42905;DHT22;28550;51.228;4.528;2023-04-24T18:14:27;10.80;1.00
42905;DHT22;28550;51.228;4.528;2023-04-24T18:16:53;10.80;1.00
42905;DHT22;28550;51.228;4.528;2023-04-24T18:19:22;10.80;20.80
42905;DHT22;28550;51.228;4.528;2023-04-24T18:21:49;10.70;1.00
42905;DHT22;28550;51.228;4.528;2023-04-24T18:24:16;10.60;1.00
42905;DHT22;28550;51.228;4.528;2023-04-24T18:26:42;10.60;99.90
42905;DHT22;28550;51.228;4.528;2023-04-24T18:29:08;10.40;99.90
42905;DHT22;28550;51.228;4.528;2023-04-24T18:31:34;10.40;1.00
42905;DHT22;28550;51.228;4.528;2023-04-24T18:34:00;10.30;1.00
42905;DHT22;28550;51.228;4.528;2023-04-24T18:36:25;10.30;1.00
42905;DHT22;28550;51.228;4.528;2023-04-24T18:38:52;10.20;1.00
42905;DHT22;28550;51.228;4.528;2023-04-24T18:41:17;10.20;3.50
42905;DHT22;28550;51.228;4.528;2023-04-24T18:43:44;10.20;99.90
42905;DHT22;28550;51.228;4.528;2023-04-24T18:46:13;10.10;99.90
42905;DHT22;28550;51.228;4.528;2023-04-24T18:48:40;10.00;1.00
42905;DHT22;28550;51.228;4.528;2023-04-24T18:51:06;10.00;1.00
42905;DHT22;28550;51.228;4.528;2023-04-24T18:53:33;9.90;1.00
42905;DHT22;28550;51.228;4.528;2023-04-24T18:56:07;9.80;99.90
42905;DHT22;28550;51.228;4.528;2023-04-24T18:58:35;9.70;1.00
42905;DHT22;28550;51.228;4.528;2023-04-24T19:01:01;9.60;37.60
42905;DHT22;28550;51.228;4.528;2023-04-24T19:03:38;9.60;99.90
42905;DHT22;28550;51.228;4.528;2023-04-24T19:06:10;9.50;1.00
42905;DHT22;28550;51.228;4.528;2023-04-24T19:08:38;9.50;1.00
42905;DHT22;28550;51.228;4.528;2023-04-24T19:11:06;9.40;18.70
42905;DHT22;28550;51.228;4.528;2023-04-24T19:13:41;9.40;99.90
42905;DHT22;28550;51.228;4.528;2023-04-24T19:16:14;9.30;99.90
42905;DHT22;28550;51.228;4.528;2023-04-24T19:18:43;9.30;99.90
42905;DHT22;28550;51.228;4.528;2023-04-24T19:21:17;9.30;1.00
42905;DHT22;28550;51.228;4.528;2023-04-24T19:23:43;9.20;1.00
42905;DHT22;28550;51.228;4.528;2023-04-24T19:26:19;9.30;1.00
42905;DHT22;28550;51.228;4.528;2023-04-24T19:28:46;9.30;1.00